Mc Allen Miller International Airport
KMFE : now visible

Airfield :











YOU CAN JOIN US ON...

 
LOGIN :

Register | Disclaimer

   EN    FR    IT 

 









Legend :    VFR   Marginal VFR   IFR   Intensive IFR   Very Intensive IFR
Visi :
Ceiling :
>= 8 km
>= 3000ft
5 to 8 km
1000 to 3000 ft
1500m to 5 km
500 to 1000 ft
800 to 1500m
200 to 500 ft
< 800m
< 200 ft
Symbols :   Thunderstorms  Fog  Heavy snow  Heavy precipitations  Wind > 20 kt






- Airport Elevation : 107 ft
- IATA code : MFE


KMFE - Mc Allen Miller International

CURRENT METAR :
  • 172053Z 16020G28KT 10SM FEW041 30/18 A2977 RMK AO2 PK WND 14032/1958 SLP077 T03000183 56034

EXPIRED METARs :
  • 171953Z 15022G28KT 10SM SCT039 31/18 A2979 RMK AO2 PK WND 14029/1926 SLP085 T03060183
  • 171853Z 14020G26KT 10SM SCT034 29/18 A2983 RMK AO2 PK WND 14027/1824 SLP100 T02890183
  • 171817Z 16015G26KT 10SM FEW028 28/19 A2985 RMK AO2 PK WND 16026/1810 T02830189

TAF KMFE
Valid from the 17 at 18:00 until the 18 at 18:00 UTC


171725Z 1718/1818 16015G25KT P6SM BKN025
FM171900 15020G28KT P6SM SCT040
FM180200 14012KT P6SM BKN015
FM181600 16013G18KT P6SM SCT030



MET'MAP, your aeronautical weather chart ! - Copyright ORBIFLY December 2007 - Disclaimer

ORBIFLY MET'MAP TEAM :

Programming & Development : Alexandra Zaïnal
Concept & original design : Baudouin d'Aumeries
Assistance for programming : Marc-Olivier Méhu
Technical & hardware support : Manuel Goepfert

Contact : metmap@orbifly.com




SOURCES & CREDITS :

   NOAA       Earth
Advisory